Time;durP1;ratioP1;P1;durP2;ratioP2;P2;SDS_P1;SDS_P2;PMS_P1;PMS_P2;Temp;Humidity;BMP_temperature;BMP_pressure;BME280_temperature;BME280_humidity;BME280_pressure;Samples;Min_cycle;Max_cycle;Signal;HPM_P1;HPM_P2
2022/03/22 00:01:24;;;;;;;21.40;8.90;;;;;;;7.54;34.08;98272.06;5023492;28;20500;-66
2022/03/22 00:03:51;;;;;;;23.75;9.82;;;;;;;7.58;34.40;98275.81;5023219;28;20049;-65
2022/03/22 00:06:18;;;;;;;19.90;9.90;;;;;;;7.18;34.34;98199.00;5022845;28;20057;-56
2022/03/22 00:08:45;;;;;;;17.70;7.43;;;;;;;7.23;33.48;98169.38;5023602;28;20440;-58
2022/03/22 00:11:13;;;;;;;18.60;6.90;;;;;;;7.74;33.89;98271.44;5023230;28;20064;-56
2022/03/22 00:13:43;;;;;;;17.50;7.40;;;;;;;7.62;33.93;98224.41;5023851;28;20436;-65
2022/03/22 00:16:10;;;;;;;17.48;7.25;;;;;;;7.43;34.82;98221.13;5021801;28;20065;-56
2022/03/22 00:18:56;;;;;;;17.83;8.63;;;;;;;7.62;33.99;98263.00;5023012;28;20058;-65
2022/03/22 00:21:24;;;;;;;17.15;8.27;;;;;;;7.71;34.32;98266.56;5018330;28;20173;-57
2022/03/22 00:23:50;;;;;;;34.97;12.80;;;;;;;7.62;34.66;98240.13;5003184;28;20046;-65
2022/03/22 00:26:17;;;;;;;18.20;8.77;;;;;;;7.77;33.52;98244.38;5003302;28;20054;-64
2022/03/22 00:28:45;;;;;;;28.42;10.38;;;;;;;7.38;34.40;98171.66;5003601;28;20144;-56
2022/03/22 00:31:11;;;;;;;26.27;11.68;;;;;;;7.78;33.89;98226.69;5003333;28;20072;-56
2022/03/22 00:33:38;;;;;;;25.50;11.45;;;;;;;7.71;34.65;98244.50;5003302;28;20591;-64
2022/03/22 00:36:05;;;;;;;25.40;11.60;;;;;;;7.68;34.60;98247.13;5003235;28;20046;-58
2022/03/22 00:38:32;;;;;;;27.38;11.43;;;;;;;7.61;34.75;98239.31;5003526;28;20060;-64
2022/03/22 00:40:59;;;;;;;21.83;9.93;;;;;;;7.52;34.42;98219.19;5003359;28;20054;-59
2022/03/22 00:43:26;;;;;;;15.90;6.45;;;;;;;7.84;32.84;98236.44;5003751;28;20046;-56
2022/03/22 00:45:55;;;;;;;15.27;6.78;;;;;;;7.52;32.87;98169.56;5003210;28;20060;-64
2022/03/22 00:48:22;;;;;;;15.25;6.55;;;;;;;7.94;32.78;98203.00;5003075;28;20513;-59
2022/03/22 00:50:51;;;;;;;14.77;6.25;;;;;;;7.95;32.59;98226.69;4991717;28;20923;-58
2022/03/22 00:53:18;;;;;;;16.42;7.20;;;;;;;7.85;32.04;98210.47;5002086;28;20089;-57
2022/03/22 00:55:47;;;;;;;19.00;6.72;;;;;;;7.40;32.64;98163.06;5002504;28;20049;-64
2022/03/22 00:58:14;;;;;;;15.75;5.85;;;;;;;7.71;31.91;98194.88;5003630;28;20517;-55
2022/03/22 01:00:41;;;;;;;16.25;5.68;;;;;;;7.83;32.07;98201.69;5003737;28;20050;-56
2022/03/22 01:03:09;;;;;;;13.68;6.32;;;;;;;7.89;32.28;98205.94;5003423;28;20512;-63
2022/03/22 01:05:37;;;;;;;15.45;5.63;;;;;;;7.82;32.01;98202.84;5003714;28;20153;-56
2022/03/22 01:08:10;;;;;;;13.45;5.78;;;;;;;7.41;33.04;98157.22;5001919;28;20141;-64
2022/03/22 01:10:41;;;;;;;14.23;5.90;;;;;;;7.60;32.56;98201.03;5003442;28;20046;-56
2022/03/22 01:13:10;;;;;;;15.73;6.72;;;;;;;7.59;32.46;98214.00;5003622;28;20489;-64
2022/03/22 01:15:42;;;;;;;11.70;5.80;;;;;;;7.42;32.63;98164.38;5002147;28;20081;-66
2022/03/22 01:18:10;;;;;;;11.85;5.93;;;;;;;7.67;32.81;98193.91;5006188;28;20444;-56
2022/03/22 01:20:40;;;;;;;12.82;6.10;;;;;;;7.68;32.42;98181.72;5005585;28;20402;-56
2022/03/22 01:23:08;;;;;;;11.93;5.40;;;;;;;7.20;32.08;98123.16;5006596;28;20136;-65
2022/03/22 01:25:36;;;;;;;9.93;5.30;;;;;;;7.70;32.58;98190.50;5004850;28;20061;-62
2022/03/22 01:28:08;;;;;;;33.40;11.38;;;;;;;7.54;32.95;98183.84;5006319;28;20449;-57
2022/03/22 01:30:36;;;;;;;16.25;6.35;;;;;;;7.69;32.14;98180.63;5006609;28;20054;-56
2022/03/22 01:33:04;;;;;;;13.70;6.35;;;;;;;7.53;32.41;98154.66;5006492;28;20057;-57
2022/03/22 01:35:31;;;;;;;17.63;7.90;;;;;;;7.66;32.39;98175.75;5006590;28;20058;-57
2022/03/22 01:37:58;;;;;;;16.23;7.30;;;;;;;6.94;32.28;98063.66;5006443;28;20069;-66
2022/03/22 01:40:27;;;;;;;13.95;5.97;;;;;;;7.67;31.64;98160.81;5007053;28;20120;-66
2022/03/22 01:42:54;;;;;;;13.13;6.78;;;;;;;7.59;32.13;98158.88;5006657;28;20414;-57
2022/03/22 01:45:21;;;;;;;15.82;7.15;;;;;;;7.65;32.91;98174.09;5006944;28;20165;-66
2022/03/22 01:47:49;;;;;;;16.95;8.20;;;;;;;7.61;32.38;98184.19;5005873;28;20509;-66
2022/03/22 01:50:19;;;;;;;13.70;7.13;;;;;;;7.56;32.51;98198.13;5004308;28;20050;-57
2022/03/22 01:52:46;;;;;;;15.98;7.57;;;;;;;7.38;32.89;98174.41;5006804;28;20409;-57
2022/03/22 01:55:17;;;;;;;19.48;7.38;;;;;;;7.33;32.80;98180.06;5006193;28;20053;-65
2022/03/22 01:57:44;;;;;;;14.90;6.85;;;;;;;7.35;32.83;98175.03;5005877;28;20513;-58
2022/03/22 02:00:17;;;;;;;31.50;12.73;;;;;;;7.19;32.55;98120.72;5004298;28;20053;-66
2022/03/22 02:08:29;;;;;;;32.35;12.98;;;;;;;7.06;32.79;98100.47;5006253;28;20057;-66
2022/03/22 02:10:58;;;;;;;16.55;6.95;;;;;;;7.34;33.48;98143.13;5004650;28;20050;-66
2022/03/22 02:13:29;;;;;;;16.38;7.18;;;;;;;7.01;32.93;98086.84;5005604;28;20057;-66
2022/03/22 02:15:58;;;;;;;16.33;6.47;;;;;;;7.42;32.72;98127.72;5005882;28;20056;-57
2022/03/22 02:18:25;;;;;;;16.65;6.85;;;;;;;7.38;33.03;98141.31;5005475;28;20440;-57
2022/03/22 02:20:53;;;;;;;21.58;7.95;;;;;;;7.53;32.88;98137.28;5005576;28;20053;-57
2022/03/22 02:23:28;;;;;;;14.30;6.97;;;;;;;7.42;33.52;98087.19;5006233;28;20531;-57
2022/03/22 02:25:54;;;;;;;9.85;5.15;;;;;;;7.47;33.34;98133.91;5005974;28;20064;-58
2022/03/22 02:28:22;;;;;;;12.60;6.38;;;;;;;7.12;33.57;98070.78;5004355;28;20230;-66
2022/03/22 02:30:52;;;;;;;19.52;8.52;;;;;;;7.36;33.91;98099.53;5003875;28;20065;-66
2022/03/22 02:33:20;;;;;;;14.93;6.80;;;;;;;7.12;33.41;98088.16;5005345;28;20050;-66
2022/03/22 02:35:47;;;;;;;10.57;5.05;;;;;;;7.46;33.06;98123.19;5005392;28;20053;-65
2022/03/22 02:38:13;;;;;;;15.68;6.35;;;;;;;6.81;33.51;98013.06;5005436;28;20054;-57
2022/03/22 02:40:40;;;;;;;16.30;6.93;;;;;;;7.05;34.00;98060.25;5005858;28;20056;-58
2022/03/22 02:43:08;;;;;;;16.50;8.38;;;;;;;7.44;33.74;98079.41;5005950;28;20053;-66
2022/03/22 02:45:34;;;;;;;21.20;7.65;;;;;;;7.31;33.64;98080.38;5003798;28;20524;-58
2022/03/22 02:48:01;;;;;;;17.75;7.97;;;;;;;6.92;34.06;98013.59;5003845;28;20876;-62
2022/03/22 02:50:28;;;;;;;21.15;8.13;;;;;;;7.36;34.56;98088.50;5005106;28;20064;-58
2022/03/22 02:52:55;;;;;;;17.13;8.05;;;;;;;7.37;33.84;98098.38;5004977;28;20050;-59
2022/03/22 02:55:21;;;;;;;14.75;5.88;;;;;;;6.67;34.47;97960.09;5003073;28;20989;-66
2022/03/22 02:57:49;;;;;;;15.75;7.47;;;;;;;7.23;34.11;98039.84;5003394;28;20049;-66
2022/03/22 03:00:16;;;;;;;14.93;7.07;;;;;;;6.95;34.12;98010.19;5004836;28;20057;-57
2022/03/22 03:02:47;;;;;;;15.45;7.35;;;;;;;7.61;34.78;98095.13;5005163;28;20073;-66
2022/03/22 03:05:14;;;;;;;21.90;7.63;;;;;;;7.61;34.83;98117.19;5003716;28;20137;-66
2022/03/22 03:07:41;;;;;;;16.00;7.50;;;;;;;7.65;34.51;98110.69;5005010;28;20058;-65
2022/03/22 03:10:08;;;;;;;13.55;5.97;;;;;;;7.60;34.23;98094.31;5004958;28;20555;-57
2022/03/22 03:12:36;;;;;;;20.77;8.27;;;;;;;7.79;34.02;98091.22;5004530;28;20531;-57
2022/03/22 03:15:05;;;;;;;14.63;7.13;;;;;;;7.83;34.39;98096.88;5004852;28;20050;-57
2022/03/22 03:17:31;;;;;;;15.27;6.15;;;;;;;7.24;34.51;98024.94;5002851;28;20060;-67
2022/03/22 03:19:58;;;;;;;15.65;7.45;;;;;;;7.95;34.62;98113.59;5008269;28;20440;-60
2022/03/22 03:22:25;;;;;;;13.88;6.15;;;;;;;7.95;34.71;98094.28;5024518;28;20060;-65
2022/03/22 03:24:51;;;;;;;18.27;7.93;;;;;;;7.63;34.74;98082.63;5023978;28;20436;-59
2022/03/22 03:27:18;;;;;;;14.18;5.63;;;;;;;7.37;34.68;98061.72;5024118;28;20057;-57
2022/03/22 03:29:45;;;;;;;12.55;5.47;;;;;;;7.85;34.99;98113.91;5024257;28;20049;-58
2022/03/22 03:32:11;;;;;;;8.15;4.30;;;;;;;7.55;34.94;98094.50;5024149;28;20053;-57
2022/03/22 03:34:38;;;;;;;16.63;7.53;;;;;;;7.77;35.23;98123.00;5024075;28;20053;-65
2022/03/22 03:37:06;;;;;;;11.80;6.75;;;;;;;7.71;35.28;98133.41;5024183;28;20049;-58
2022/03/22 03:39:33;;;;;;;17.02;7.38;;;;;;;7.54;35.27;98100.31;5022492;28;20069;-66
2022/03/22 03:42:02;;;;;;;15.13;6.57;;;;;;;7.71;35.38;98136.97;5024552;28;20068;-60
2022/03/22 03:47:18;;;;;;;12.82;4.93;;;;;;;7.52;35.11;98130.97;5023769;28;20528;-66
2022/03/22 03:49:47;;;;;;;17.48;7.78;;;;;;;7.41;35.71;98118.63;5021685;28;20065;-56
2022/03/22 03:52:21;;;;;;;19.00;7.50;;;;;;;7.44;35.89;98151.09;5022077;28;20348;-57
2022/03/22 03:54:48;;;;;;;16.52;7.22;;;;;;;7.28;35.97;98147.16;5023804;28;20050;-57
2022/03/22 03:57:15;;;;;;;16.30;7.13;;;;;;;6.92;36.51;98143.84;5023713;28;20071;-59
2022/03/22 03:59:42;;;;;;;16.95;6.80;;;;;;;6.95;37.33;98137.69;5023468;28;20072;-57
2022/03/22 04:02:10;;;;;;;20.50;8.02;;;;;;;7.08;36.91;98158.78;5023960;28;20079;-57
2022/03/22 04:04:39;;;;;;;14.85;7.57;;;;;;;7.06;37.18;98150.06;5022337;28;20057;-59
2022/03/22 04:07:08;;;;;;;17.95;7.75;;;;;;;7.04;37.49;98144.03;5021987;28;20045;-66
2022/03/22 04:09:37;;;;;;;15.27;6.88;;;;;;;7.01;37.05;98149.38;5023703;28;20782;-56
2022/03/22 04:12:05;;;;;;;19.58;7.43;;;;;;;7.06;37.19;98143.72;5023666;28;20053;-58
2022/03/22 04:14:32;;;;;;;21.10;7.85;;;;;;;7.14;37.31;98146.50;5023598;28;20516;-66
2022/03/22 04:16:58;;;;;;;13.90;7.50;;;;;;;7.13;37.83;98139.34;5023582;28;20049;-66
2022/03/22 04:19:26;;;;;;;13.98;6.70;;;;;;;7.08;37.96;98153.28;5023348;28;20072;-57
2022/03/22 04:21:53;;;;;;;17.75;8.30;;;;;;;6.44;37.74;98035.69;5004123;28;20090;-66
2022/03/22 04:24:20;;;;;;;24.98;8.52;;;;;;;6.74;37.47;98092.59;5003942;28;20085;-57
2022/03/22 04:26:47;;;;;;;20.60;8.10;;;;;;;6.94;37.80;98152.59;5003907;28;20147;-57
2022/03/22 04:34:46;;;;;;;20.52;9.38;;;;;;;6.78;38.73;98125.81;5003816;28;20511;-67
2022/03/22 04:37:14;;;;;;;19.15;9.90;;;;;;;6.78;38.08;98121.09;5018603;28;20452;-66
2022/03/22 04:39:44;;;;;;;21.88;8.73;;;;;;;7.00;38.70;98142.25;5003879;28;20058;-66
2022/03/22 04:42:15;;;;;;;18.75;8.80;;;;;;;6.30;38.27;98026.75;5003805;28;20070;-60
2022/03/22 04:44:42;;;;;;;19.52;7.75;;;;;;;6.99;38.66;98138.69;5003853;28;20060;-65
2022/03/22 04:47:09;;;;;;;20.27;8.68;;;;;;;7.12;39.10;98125.91;5003546;28;20076;-57
2022/03/22 04:49:36;;;;;;;19.65;8.15;;;;;;;7.27;38.60;98134.50;5003665;28;20054;-57
2022/03/22 04:57:34;;;;;;;24.60;12.63;;;;;;;7.50;38.32;98136.00;5007738;28;20476;-57
2022/03/22 05:00:01;;;;;;;27.00;11.52;;;;;;;7.60;38.22;98110.84;5005626;28;20066;-66
2022/03/22 05:02:29;;;;;;;19.52;9.77;;;;;;;7.74;38.17;98132.75;5007021;28;20908;-57
2022/03/22 05:04:56;;;;;;;21.23;9.73;;;;;;;7.83;38.60;98136.31;5007241;28;20575;-57
2022/03/22 05:07:22;;;;;;;25.88;10.55;;;;;;;7.53;37.90;98079.41;5005640;28;20327;-66
2022/03/22 05:09:49;;;;;;;19.23;8.57;;;;;;;7.87;38.59;98119.94;5005400;28;20428;-57
2022/03/22 05:12:16;;;;;;;17.35;8.20;;;;;;;8.10;38.29;98107.53;5006844;28;20091;-66
2022/03/22 05:14:43;;;;;;;16.85;7.78;;;;;;;8.20;38.58;98104.44;5006942;28;20057;-66
2022/03/22 05:17:13;;;;;;;15.05;4.32;;;;;;;7.88;39.81;98045.13;5006833;28;20160;-56
2022/03/22 05:19:40;;;;;;;14.82;7.28;;;;;;;8.21;40.02;98120.66;5007831;28;20147;-56
2022/03/22 05:22:07;;;;;;;17.60;7.03;;;;;;;5.16;39.97;97605.75;5026081;28;20502;-56
2022/03/22 05:24:34;;;;;;;15.38;6.60;;;;;;;8.37;40.11;98101.66;5026428;28;20056;-58
2022/03/22 05:27:02;;;;;;;16.00;6.97;;;;;;;8.54;39.50;98101.56;5026492;28;20490;-66
2022/03/22 05:29:29;;;;;;;15.90;6.75;;;;;;;8.63;39.70;98099.59;5026211;28;20072;-65
2022/03/22 05:31:56;;;;;;;15.20;7.10;;;;;;;8.57;40.07;98084.34;5024628;28;20049;-65
2022/03/22 05:34:23;;;;;;;18.80;6.60;;;;;;;8.84;39.38;98111.50;5024651;28;20124;-59
2022/03/22 05:36:50;;;;;;;16.35;7.18;;;;;;;8.66;39.81;98098.94;5025474;28;20060;-66
2022/03/22 05:39:17;;;;;;;15.65;7.07;;;;;;;8.56;39.79;98055.13;5026193;28;20060;-65
2022/03/22 05:41:44;;;;;;;15.98;7.35;;;;;;;8.95;39.37;98123.81;5024569;28;20575;-65
2022/03/22 05:44:13;;;;;;;18.88;7.18;;;;;;;8.65;39.53;98086.25;5025913;28;20053;-66
2022/03/22 05:46:40;;;;;;;25.73;7.60;;;;;;;8.72;40.63;98103.13;5026105;28;20199;-66
2022/03/22 05:49:08;;;;;;;14.38;5.75;;;;;;;8.76;41.44;98098.53;5024204;28;20053;-65
2022/03/22 05:51:38;;;;;;;10.43;5.35;;;;;;;8.57;41.31;98089.88;5024273;28;20131;-57
2022/03/22 05:54:05;;;;;;;12.43;4.88;;;;;;;8.08;42.71;98022.31;5025649;28;20148;-64
2022/03/22 05:56:32;;;;;;;17.33;6.25;;;;;;;8.88;42.73;98090.38;4978808;28;20160;-64
2022/03/22 05:58:59;;;;;;;8.05;3.53;;;;;;;8.66;42.16;98087.91;5025590;28;20054;-57
2022/03/22 06:01:27;;;;;;;11.18;4.18;;;;;;;8.58;42.84;98074.94;5025446;28;20057;-64
2022/03/22 06:03:54;;;;;;;10.52;4.65;;;;;;;9.02;43.00;98090.94;5025565;28;20046;-58
2022/03/22 06:06:21;;;;;;;18.35;5.47;;;;;;;9.01;43.26;98075.47;5025816;28;20055;-59
2022/03/22 06:08:49;;;;;;;10.40;4.75;;;;;;;9.05;43.07;98090.25;5023983;28;20631;-57
2022/03/22 06:11:17;;;;;;;11.48;5.32;;;;;;;8.92;42.84;98089.38;5025473;28;20049;-57
2022/03/22 06:13:44;;;;;;;21.67;6.32;;;;;;;8.82;42.85;98064.09;5025064;28;20049;-63
2022/03/22 06:16:12;;;;;;;13.88;6.07;;;;;;;8.98;42.76;98087.22;5024986;28;20045;-57
2022/03/22 06:18:39;;;;;;;12.98;6.07;;;;;;;8.99;43.07;98080.56;5024031;28;20061;-64
2022/03/22 06:21:06;;;;;;;19.20;6.45;;;;;;;8.93;43.29;98059.78;5012416;28;20525;-57
2022/03/22 06:23:33;;;;;;;10.93;5.47;;;;;;;9.10;43.67;98090.88;5004280;28;20129;-66
2022/03/22 06:26:01;;;;;;;13.77;5.90;;;;;;;8.71;43.48;98032.47;5020641;28;20129;-64
2022/03/22 06:28:28;;;;;;;14.57;5.82;;;;;;;8.96;43.66;98081.22;5005793;28;20061;-65
2022/03/22 06:30:55;;;;;;;11.85;4.82;;;;;;;9.37;42.65;98072.97;5005422;28;20484;-56
2022/03/22 06:33:24;;;;;;;14.13;6.32;;;;;;;9.05;43.00;98068.97;5005371;28;20053;-65
2022/03/22 06:35:51;;;;;;;19.90;7.00;;;;;;;8.84;43.52;98053.50;5003993;28;20148;-64
2022/03/22 06:38:18;;;;;;;11.70;4.75;;;;;;;9.11;44.03;98105.50;5004119;28;20054;-64
2022/03/22 06:40:47;;;;;;;17.98;7.55;;;;;;;8.80;44.17;98088.47;5005738;28;20058;-63
2022/03/22 06:43:16;;;;;;;15.73;6.30;;;;;;;8.90;43.86;98099.13;5005884;28;20045;-58
2022/03/22 06:45:44;;;;;;;19.48;6.90;;;;;;;9.11;43.56;98077.88;5005459;28;20054;-57
2022/03/22 06:48:12;;;;;;;13.45;6.55;;;;;;;9.09;44.35;98096.72;5004999;28;20407;-65
2022/03/22 06:50:40;;;;;;;17.30;7.50;;;;;;;9.33;43.55;98085.84;5003565;28;20053;-64
2022/03/22 06:53:07;;;;;;;13.63;6.97;;;;;;;9.07;44.19;98060.34;5005219;28;20062;-63
2022/03/22 06:55:36;;;;;;;13.60;7.00;;;;;;;9.45;43.27;98071.28;5004308;28;20060;-58
2022/03/22 06:58:04;;;;;;;9.25;5.30;;;;;;;9.57;43.21;98108.09;5004605;28;20053;-63
2022/03/22 07:00:32;;;;;;;14.57;6.85;;;;;;;9.65;43.48;98098.94;5005027;28;20054;-62
2022/03/22 07:03:01;;;;;;;18.80;6.28;;;;;;;9.35;42.75;98055.91;5006373;28;20141;-64
2022/03/22 07:05:29;;;;;;;14.85;7.35;;;;;;;9.48;43.21;98098.25;5015103;28;20053;-63
2022/03/22 07:07:56;;;;;;;13.35;6.80;;;;;;;9.69;42.81;98115.66;5022506;28;20049;-65
2022/03/22 07:10:25;;;;;;;17.42;5.82;;;;;;;9.73;43.22;98028.88;5013104;28;20051;-57
2022/03/22 07:12:57;;;;;;;16.50;6.80;;;;;;;10.10;42.35;98083.19;5016437;28;20570;-57
2022/03/22 07:15:36;;;;;;;14.10;6.15;;;;;;;10.18;42.83;98087.06;5009797;28;20055;-63
2022/03/22 07:18:05;;;;;;;17.13;7.60;;;;;;;10.25;41.03;98084.50;5014241;28;20057;-57
2022/03/22 07:20:33;;;;;;;15.35;7.53;;;;;;;10.44;41.39;98077.28;5014977;28;20605;-63
2022/03/22 07:23:01;;;;;;;13.30;5.70;;;;;;;9.57;42.69;97991.09;5023086;28;20052;-64
2022/03/22 07:25:28;;;;;;;16.80;5.57;;;;;;;10.37;42.45;98054.88;5008411;28;20048;-67
2022/03/22 07:27:55;;;;;;;12.55;6.03;;;;;;;10.36;42.45;98053.28;5013646;28;20057;-57
2022/03/22 07:30:22;;;;;;;21.88;7.00;;;;;;;9.95;43.16;98058.91;5023516;28;20053;-57
2022/03/22 07:32:49;;;;;;;17.88;7.20;;;;;;;9.88;44.06;98053.13;5023483;28;20080;-56
2022/03/22 07:35:19;;;;;;;10.98;5.40;;;;;;;9.76;42.97;98044.78;5012006;28;20050;-66
2022/03/22 07:37:48;;;;;;;10.15;5.85;;;;;;;9.86;43.44;98025.00;5008836;28;20104;-62
2022/03/22 07:40:16;;;;;;;15.20;6.13;;;;;;;9.87;43.02;97985.09;5003369;28;20061;-56
2022/03/22 07:42:44;;;;;;;11.55;5.38;;;;;;;10.12;43.57;98080.91;5005428;28;20050;-63
2022/03/22 07:45:11;;;;;;;10.18;4.05;;;;;;;9.96;43.13;98032.84;5007903;28;20502;-62
2022/03/22 07:47:38;;;;;;;17.15;6.47;;;;;;;10.21;43.85;98006.84;5002018;28;20172;-62
2022/03/22 07:53:06;;;;;;;15.10;4.00;;;;;;;9.43;44.12;97988.66;5007549;28;20077;-57
2022/03/22 07:55:39;;;;;;;13.27;4.65;;;;;;;10.11;43.95;98054.38;5022146;28;20136;-72
2022/03/22 07:58:08;;;;;;;15.80;5.40;;;;;;;9.48;44.52;97980.16;5008839;28;20042;-60
2022/03/22 08:00:38;;;;;;;12.73;5.35;;;;;;;7.41;44.90;97617.00;5008037;28;20366;-64
2022/03/22 08:03:09;;;;;;;12.10;4.63;;;;;;;10.35;44.24;98040.56;5010023;28;20133;-58
2022/03/22 08:05:37;;;;;;;13.77;4.20;;;;;;;10.02;44.29;98003.78;5004027;28;20061;-67
2022/03/22 08:08:05;;;;;;;13.48;5.53;;;;;;;10.24;44.73;98027.53;5001989;28;20054;-60
2022/03/22 08:10:52;;;;;;;17.45;5.57;;;;;;;10.07;44.22;98055.38;5013543;28;20053;-70
2022/03/22 08:13:19;;;;;;;10.88;3.58;;;;;;;9.88;45.87;98036.50;5012427;28;20077;-62
2022/03/22 08:15:46;;;;;;;7.75;4.05;;;;;;;10.01;45.83;98042.88;5007842;28;20049;-65
2022/03/22 08:18:12;;;;;;;14.40;5.05;;;;;;;9.79;44.98;97972.16;5002012;28;20831;-61
2022/03/22 08:20:39;;;;;;;11.88;5.53;;;;;;;9.08;44.47;97835.31;5016793;28;20062;-65
2022/03/22 08:23:07;;;;;;;13.18;4.65;;;;;;;10.28;44.46;98034.81;5003511;28;20057;-58
2022/03/22 08:25:38;;;;;;;9.23;5.32;;;;;;;10.54;44.74;98038.03;5001267;28;20050;-57
2022/03/22 08:28:08;;;;;;;8.43;3.70;;;;;;;9.95;43.83;97920.53;5006788;28;20141;-59
2022/03/22 08:30:36;;;;;;;11.75;4.70;;;;;;;10.67;44.29;98036.06;5020119;28;20053;-63
2022/03/22 08:33:07;;;;;;;8.88;4.40;;;;;;;10.50;44.36;98036.31;5007851;28;20160;-69
2022/03/22 08:35:35;;;;;;;10.73;4.57;;;;;;;10.45;44.20;97972.81;5027158;28;20057;-70
2022/03/22 08:38:03;;;;;;;11.30;5.47;;;;;;;11.23;43.76;98023.19;5016663;28;20054;-70
2022/03/22 08:40:30;;;;;;;15.95;6.15;;;;;;;11.57;43.31;98019.84;5025578;28;20087;-69
2022/03/22 08:42:58;;;;;;;11.88;4.57;;;;;;;10.54;43.88;97988.16;5008064;28;20128;-55
2022/03/22 08:45:27;;;;;;;9.25;4.47;;;;;;;11.19;42.89;98009.19;5019102;28;20132;-71
2022/03/22 08:47:55;;;;;;;9.00;4.60;;;;;;;11.01;43.61;98007.88;5013065;28;20049;-69
2022/03/22 08:50:25;;;;;;;8.38;3.67;;;;;;;11.20;43.39;97998.94;5005274;28;20053;-69
2022/03/22 08:52:59;;;;;;;4.95;1.73;;;;;;;11.15;44.35;98018.56;5016064;28;20073;-67
2022/03/22 08:55:26;;;;;;;5.38;3.33;;;;;;;10.96;42.84;97988.72;5013630;28;20079;-56
2022/03/22 08:57:53;;;;;;;4.47;2.95;;;;;;;10.21;43.90;97957.00;5009287;28;20054;-57
2022/03/22 09:00:20;;;;;;;7.75;3.40;;;;;;;10.92;43.70;97986.97;5012038;28;20057;-64
2022/03/22 09:02:51;;;;;;;12.60;4.32;;;;;;;11.66;42.22;98006.66;5005320;28;20413;-64
2022/03/22 09:08:07;;;;;;;7.88;3.33;;;;;;;12.08;42.11;98007.81;5010373;28;20049;-63
2022/03/22 09:10:35;;;;;;;8.38;3.95;;;;;;;12.18;40.67;97997.00;5007298;28;20380;-59
2022/03/22 09:13:04;;;;;;;10.13;4.10;;;;;;;12.13;40.73;97988.09;5021231;28;20057;-67
2022/03/22 09:15:33;;;;;;;5.70;2.72;;;;;;;12.31;41.11;97981.03;5009228;28;20050;-66
2022/03/22 09:17:59;;;;;;;8.05;3.33;;;;;;;12.38;41.36;97999.88;5018677;28;20631;-56
2022/03/22 09:20:31;;;;;;;8.85;3.72;;;;;;;12.55;40.99;97994.72;5008574;28;20060;-64
2022/03/22 09:23:00;;;;;;;7.75;3.55;;;;;;;12.67;40.40;97969.63;5020301;28;20116;-61
2022/03/22 09:25:27;;;;;;;3.47;1.90;;;;;;;12.06;41.43;97993.50;5009755;28;20053;-69
2022/03/22 09:27:56;;;;;;;22.13;7.40;;;;;;;12.33;41.20;97998.13;5023554;28;20057;-57
2022/03/22 09:30:23;;;;;;;11.02;3.95;;;;;;;12.27;41.24;98007.91;5008779;28;20436;-56
2022/03/22 09:32:50;;;;;;;8.65;3.35;;;;;;;11.39;42.43;97941.66;5013660;28;20053;-57
2022/03/22 09:35:19;;;;;;;11.35;4.20;;;;;;;11.93;41.69;97978.06;5015454;28;20050;-57
2022/03/22 09:37:48;;;;;;;17.17;7.00;;;;;;;11.59;42.26;97950.91;5014617;28;20558;-66
2022/03/22 09:40:17;;;;;;;9.05;3.58;;;;;;;11.93;41.49;97955.84;5023342;28;20416;-58
2022/03/22 09:42:45;;;;;;;8.45;4.25;;;;;;;12.05;41.61;97969.63;5019611;28;20054;-66
2022/03/22 09:45:19;;;;;;;9.65;4.40;;;;;;;11.87;41.11;97973.94;5004660;28;20056;-72
2022/03/22 09:47:46;;;;;;;11.13;5.07;;;;;;;11.78;41.94;97968.53;5021600;28;20601;-55
2022/03/22 09:50:15;;;;;;;11.15;4.78;;;;;;;11.44;42.27;97965.56;5011212;28;20061;-56
2022/03/22 09:52:42;;;;;;;11.13;5.18;;;;;;;11.70;41.04;97927.06;5015556;28;20065;-56
2022/03/22 09:55:12;;;;;;;12.45;4.88;;;;;;;11.37;41.65;97937.59;5004505;28;20046;-66
2022/03/22 09:57:39;;;;;;;9.77;5.13;;;;;;;11.73;41.74;97984.63;5005978;28;20042;-65
2022/03/22 10:00:08;;;;;;;14.23;6.05;;;;;;;12.08;41.10;97982.81;5014701;28;20111;-65
2022/03/22 10:02:35;;;;;;;12.48;5.80;;;;;;;11.91;41.07;97986.75;5024051;28;20045;-64
2022/03/22 10:05:03;;;;;;;14.50;5.70;;;;;;;12.25;41.44;97990.78;5023808;28;20046;-64
2022/03/22 10:07:30;;;;;;;7.95;4.28;;;;;;;11.45;41.67;98001.28;5025109;28;20060;-57
2022/03/22 10:10:03;;;;;;;12.90;5.18;;;;;;;11.61;42.16;98010.47;5025502;28;20076;-57
2022/03/22 10:12:31;;;;;;;12.87;5.97;;;;;;;11.72;41.94;97999.69;5025636;28;20172;-57
2022/03/22 10:15:15;;;;;;;19.23;6.28;;;;;;;12.02;41.62;97998.13;5025173;28;20549;-65
2022/03/22 10:17:44;;;;;;;6.95;3.28;;;;;;;12.00;41.35;98006.00;5025617;28;20049;-65
2022/03/22 10:20:23;;;;;;;16.67;6.70;;;;;;;11.70;41.41;97957.59;5024909;28;20486;-57
2022/03/22 10:23:01;;;;;;;12.32;5.68;;;;;;;12.22;40.92;97988.72;5020316;28;20060;-57
2022/03/22 10:25:32;;;;;;;10.32;5.38;;;;;;;12.09;40.28;97959.44;5005926;28;20054;-57
2022/03/22 10:28:02;;;;;;;21.83;8.77;;;;;;;11.69;41.99;97978.19;5005125;28;20057;-57
2022/03/22 10:30:30;;;;;;;11.88;5.38;;;;;;;12.02;41.50;97989.81;5003952;28;20100;-56
2022/03/22 10:32:57;;;;;;;7.53;3.90;;;;;;;12.49;39.69;97968.38;5004092;28;20587;-57
2022/03/22 10:35:25;;;;;;;13.50;6.05;;;;;;;12.30;39.31;97965.53;5005511;28;20536;-65
2022/03/22 10:37:55;;;;;;;7.28;4.70;;;;;;;11.78;39.81;97981.59;5003771;28;20572;-58
2022/03/22 10:40:40;;;;;;;15.35;6.78;;;;;;;12.07;40.36;97964.53;5005116;28;20403;-71
2022/03/22 10:43:18;;;;;;;12.23;5.57;;;;;;;12.23;40.67;97959.81;5010041;28;20053;-64
2022/03/22 10:45:50;;;;;;;13.73;6.97;;;;;;;12.34;40.45;97932.28;5017154;28;20091;-58
2022/03/22 10:48:22;;;;;;;15.82;7.43;;;;;;;12.09;40.74;97953.91;5019508;28;20521;-64
2022/03/22 10:50:54;;;;;;;12.23;6.15;;;;;;;11.52;40.82;97857.19;5006122;28;20056;-66
2022/03/22 10:53:23;;;;;;;17.60;8.48;;;;;;;12.23;40.64;97932.03;5008406;28;20049;-62
2022/03/22 10:55:57;;;;;;;17.88;8.02;;;;;;;12.32;40.62;97921.53;5008958;28;20428;-67
2022/03/22 10:58:26;;;;;;;22.05;4.85;;;;;;;12.27;40.59;97894.00;5004982;28;20554;-57
2022/03/22 11:00:57;;;;;;;14.60;6.20;;;;;;;11.90;42.03;97951.00;5007483;28;20065;-57
2022/03/22 11:03:25;;;;;;;16.00;8.02;;;;;;;12.03;41.16;97866.44;5011221;28;20125;-56
2022/03/22 11:05:54;;;;;;;15.38;7.07;;;;;;;12.41;40.40;97899.91;5022790;28;20068;-57
2022/03/22 11:08:23;;;;;;;14.68;6.93;;;;;;;12.45;41.20;97884.13;5019016;28;20524;-57
2022/03/22 11:10:54;;;;;;;14.52;7.13;;;;;;;12.87;40.80;97862.81;5004683;28;20355;-55
2022/03/22 11:13:22;;;;;;;12.07;5.85;;;;;;;12.63;40.18;97863.09;5004794;28;20057;-67
2022/03/22 11:15:50;;;;;;;24.67;7.00;;;;;;;12.50;41.36;97875.53;5004943;28;21097;-68
2022/03/22 11:18:20;;;;;;;16.30;7.47;;;;;;;12.65;40.23;97866.31;5004549;28;20500;-66
2022/03/22 11:20:52;;;;;;;12.30;7.38;;;;;;;13.04;39.90;97867.97;5005094;28;20165;-66
2022/03/22 11:23:20;;;;;;;15.85;8.38;;;;;;;12.57;40.15;97778.38;5024384;28;20045;-57
2022/03/22 11:25:47;;;;;;;12.35;5.18;;;;;;;13.23;40.59;97870.75;5017656;28;20050;-64
2022/03/22 11:28:18;;;;;;;13.32;7.07;;;;;;;13.28;39.72;97825.13;5002713;28;20137;-64
2022/03/22 11:30:47;;;;;;;15.38;7.05;;;;;;;13.43;40.23;97846.50;5013552;28;20539;-66
2022/03/22 11:36:19;;;;;;;16.50;8.05;;;;;;;13.27;39.67;97757.56;5005001;28;20053;-56
2022/03/22 11:38:56;;;;;;;13.98;6.82;;;;;;;13.93;39.50;97853.72;5003626;28;20157;-61
2022/03/22 11:44:36;;;;;;;13.75;5.18;;;;;;;13.32;40.54;97801.78;5022805;28;20583;-55
2022/03/22 11:47:16;;;;;;;18.48;7.43;;;;;;;13.52;40.18;97789.41;5011982;28;20328;-55
2022/03/22 11:50:06;;;;;;;17.13;7.82;;;;;;;13.29;40.53;97705.09;5003877;28;20168;-65
2022/03/22 11:52:33;;;;;;;9.48;5.10;;;;;;;13.61;39.83;97781.59;5003713;28;20445;-56
2022/03/22 11:55:13;;;;;;;8.40;4.20;;;;;;;13.41;40.53;97774.50;5016703;28;20107;-58
2022/03/22 11:57:53;;;;;;;11.68;5.07;;;;;;;13.23;40.63;97798.41;5012016;28;20519;-59
2022/03/22 12:00:42;;;;;;;11.43;6.10;;;;;;;12.57;41.57;97803.41;5003287;28;20064;-67
2022/03/22 12:03:11;;;;;;;15.98;4.97;;;;;;;12.77;41.08;97774.44;5005036;28;20080;-67
2022/03/22 12:05:38;;;;;;;14.15;5.03;;;;;;;13.03;41.22;97743.19;5020936;28;20417;-69
2022/03/22 12:08:10;;;;;;;15.95;6.30;;;;;;;13.49;40.58;97751.19;5018378;28;20047;-56
2022/03/22 12:10:37;;;;;;;12.75;6.57;;;;;;;13.53;40.62;97774.31;5016016;28;20048;-56